| time (UTC) | temp C | wind direction | speed KPH | gust KPH | rain 1hr cm | rain 24hr cm | rain mn cm | humidity % | barometer mb |
| 20260831013004 | 15 | 229 | 4.8 | 11.3 | 0.03 | 0.03 | 0.03 | 93 | 1003.7 |
| 20260831012003 | 15 | 211 | 3.2 | 16.1 | 0.03 | 0.03 | 0.03 | 92 | 1003.7 |
| 20260831011004 | 15 | 211 | 3.2 | 12.9 | 0.03 | 0.03 | 0.03 | 92 | 1003.6 |
| 20260831010004 | 15 | 193 | 1.6 | 8.0 | 0.03 | 0.03 | 0.03 | 92 | 1003.6 |
| 20260831005004 | 15 | 203 | 1.6 | 8.0 | 0.03 | 0.03 | 0.03 | 92 | 1003.8 |
| 20260831004004 | 15 | 204 | 3.2 | 14.5 | 0.00 | 0.00 | 0.00 | 92 | 1003.9 |
| 20260831002003 | 15 | 179 | 3.2 | 8.0 | 0.00 | 0.00 | 0.00 | 92 | 1004.1 |
| 20260831001003 | 15 | 194 | 1.6 | 11.3 | 0.00 | 0.00 | 0.00 | 92 | 1004.1 |
| 20260831000003 | 15 | 196 | 1.6 | 11.3 | 0.00 | 0.00 | 0.00 | 92 | 1004.2 |
| 20260830235004 | 15 | 212 | 1.6 | 9.7 | 0.00 | 0.00 | 0.00 | 92 | 1004.4 |
| 20260830234004 | 15 | 211 | 1.6 | 9.7 | 0.00 | 0.00 | 0.00 | 92 | 1004.5 |
| 20260830233005 | 15 | 200 | 1.6 | 8.0 | 0.00 | 0.00 | 0.00 | 92 | 1004.6 |
| 20260830232004 | 15 | 168 | 1.6 | 6.4 | 0.00 | 0.00 | 0.00 | 92 | 1004.7 |
| 20260830231004 | 15 | 207 | 1.6 | 14.5 | 0.00 | 0.00 | 0.00 | 92 | 1004.8 |
| 20260830230003 | 15 | 206 | 1.6 | 14.5 | 0.00 | 0.00 | 0.00 | 91 | 1004.8 |
| 20260830225004 | 15 | 225 | 3.2 | 14.5 | 0.00 | 0.00 | 0.00 | 91 | 1004.8 |
| 20260830224004 | 15 | 235 | 3.2 | 12.9 | 0.00 | 0.00 | 0.00 | 91 | 1005.1 |
| 20260830223005 | 15 | 225 | 3.2 | 14.5 | 0.00 | 0.00 | 0.00 | 90 | 1005.1 |
| 20260830221003 | 15 | 234 | 4.8 | 17.7 | 0.00 | 0.00 | 0.00 | 90 | 1005.2 |
| 20260830220004 | 16 | 231 | 4.8 | 30.6 | 0.00 | 0.00 | 0.00 | 89 | 1005.2 |
| 20260830214003 | 16 | 239 | 9.7 | 20.9 | 0.00 | 0.00 | 0.00 | 88 | 1005.4 |
| 20260830213003 | 16 | 243 | 8.0 | 25.7 | 0.00 | 0.00 | 0.00 | 87 | 1005.4 |
| 20260830212004 | 16 | 244 | 6.4 | 24.1 | 0.00 | 0.00 | 0.00 | 86 | 1005.2 |
| 20260830211004 | 17 | 220 | 4.8 | 19.3 | 0.00 | 0.00 | 0.00 | 87 | 1005.1 |
| 20260830210003 | 17 | 188 | 3.2 | 22.5 | 0.00 | 0.00 | 0.00 | 87 | 1005.0 |
| 20260830205005 | 17 | 199 | 3.2 | 16.1 | 0.00 | 0.00 | 0.00 | 85 | 1005.0 |
| 20260830204005 | 17 | 142 | 1.6 | 9.7 | 0.00 | 0.00 | 0.00 | 83 | 1004.6 |
| 20260830202005 | 18 | 208 | 4.8 | 16.1 | 0.00 | 0.00 | 0.00 | 82 | 1005.3 |
| 20260830201004 | 18 | 214 | 4.8 | 19.3 | 0.00 | 0.00 | 0.00 | 81 | 1005.4 |
| 20260830194003 | 18 | 186 | 3.2 | 19.3 | 0.00 | 0.00 | 0.00 | 80 | 1005.4 |
| 20260830193004 | 18 | 201 | 3.2 | 14.5 | 0.00 | 0.00 | 0.00 | 79 | 1005.5 |
| 20260830192004 | 18 | 212 | 3.2 | 16.1 | 0.00 | 0.00 | 0.00 | 79 | 1005.7 |
| 20260830191003 | 18 | 210 | 3.2 | 16.1 | 0.00 | 0.00 | 0.00 | 79 | 1005.8 |
| 20260830190004 | 18 | 223 | 4.8 | 17.7 | 0.00 | 0.00 | 0.00 | 78 | 1005.8 |
| 20260830185004 | 18 | 219 | 4.8 | 12.9 | 0.00 | 0.00 | 0.00 | 76 | 1005.9 |
| 20260830184005 | 18 | 218 | 6.4 | 16.1 | 0.00 | 0.00 | 0.00 | 75 | 1005.8 |
| 20260830183004 | 19 | 247 | 6.4 | 19.3 | 0.00 | 0.03 | 0.00 | 74 | 1005.9 |
| 20260830182004 | 19 | 242 | 4.8 | 22.5 | 0.00 | 0.03 | 0.00 | 74 | 1005.8 |
| 20260830180003 | 20 | 242 | 4.8 | 14.5 | 0.00 | 0.05 | 0.00 | 73 | 1005.9 |
| 20260830175004 | 20 | 228 | 4.8 | 16.1 | 0.00 | 0.08 | 0.00 | 73 | 1006.0 |
| 20260830174003 | 20 | 242 | 6.4 | 22.5 | 0.00 | 0.10 | 0.00 | 72 | 1006.0 |
| 20260830173003 | 20 | 244 | 8.0 | 32.2 | 0.00 | 0.13 | 0.00 | 71 | 1006.1 |
| 20260830172004 | 20 | 249 | 4.8 | 19.3 | 0.00 | 0.15 | 0.00 | 71 | 1006.2 |
| 20260830170003 | 20 | 239 | 6.4 | 22.5 | 0.00 | 0.18 | 0.00 | 71 | 1006.2 |
| 20260830165003 | 20 | 230 | 4.8 | 24.1 | 0.00 | 0.20 | 0.00 | 69 | 1006.2 |
| 20260830164004 | 21 | 239 | 8.0 | 25.7 | 0.00 | 0.23 | 0.00 | 69 | 1006.2 |
| 20260830163004 | 21 | 240 | 8.0 | 24.1 | 0.00 | 0.25 | 0.00 | 68 | 1006.4 |
| 20260830162005 | 21 | 236 | 8.0 | 25.7 | 0.00 | 0.28 | 0.00 | 68 | 1006.4 |
| 20260830161004 | 21 | 246 | 8.0 | 20.9 | 0.00 | 0.28 | 0.00 | 70 | 1006.5 |
| 20260830160004 | 21 | 246 | 6.4 | 17.7 | 0.00 | 0.30 | 0.00 | 70 | 1006.6 |
| 20260830155004 | 21 | 240 | 9.7 | 25.7 | 0.00 | 0.33 | 0.00 | 69 | 1006.7 |
| 20260830154004 | 20 | 242 | 9.7 | 20.9 | 0.00 | 0.36 | 0.00 | 69 | 1006.8 |
| 20260830153003 | 21 | 248 | 11.3 | 32.2 | 0.00 | 0.36 | 0.00 | 68 | 1007.0 |
| 20260830152004 | 21 | 241 | 8.0 | 33.8 | 0.00 | 0.38 | 0.00 | 67 | 1006.7 |
| 20260830151003 | 22 | 232 | 8.0 | 19.3 | 0.00 | 0.41 | 0.00 | 64 | 1006.6 |
| 20260830150005 | 22 | 242 | 8.0 | 29.0 | 0.00 | 0.41 | 0.00 | 63 | 1006.6 |
| 20260830145004 | 22 | 252 | 8.0 | 27.4 | 0.00 | 0.46 | 0.00 | 63 | 1006.7 |
| 20260830144003 | 22 | 252 | 9.7 | 27.4 | 0.00 | 0.46 | 0.00 | 64 | 1006.7 |
| 20260830143004 | 23 | 220 | 8.0 | 29.0 | 0.00 | 0.46 | 0.00 | 62 | 1006.7 |
| 20260830142004 | 23 | 229 | 6.4 | 22.5 | 0.00 | 0.51 | 0.00 | 63 | 1006.7 |
| 20260830141004 | 22 | 240 | 6.4 | 25.7 | 0.00 | 0.53 | 0.00 | 65 | 1006.8 |
| 20260830140004 | 23 | 254 | 8.0 | 25.7 | 0.00 | 0.53 | 0.00 | 67 | 1007.0 |
| 20260830135004 | 22 | 252 | 8.0 | 19.3 | 0.00 | 0.56 | 0.00 | 68 | 1007.0 |
| 20260830134004 | 22 | 238 | 9.7 | 27.4 | 0.00 | 0.56 | 0.00 | 70 | 1007.1 |
| 20260830133004 | 22 | 224 | 8.0 | 24.1 | 0.00 | 0.58 | 0.00 | 69 | 1007.2 |
| 20260830132003 | 22 | 237 | 9.7 | 24.1 | 0.00 | 0.61 | 0.00 | 68 | 1007.4 |
| 20260830130004 | 22 | 237 | 6.4 | 17.7 | 0.00 | 0.61 | 0.00 | 68 | 1007.5 |
| 20260830124004 | 22 | 223 | 6.4 | 22.5 | 0.00 | 0.64 | 0.00 | 69 | 1007.7 |
| 20260830123004 | 22 | 199 | 6.4 | 24.1 | 0.00 | 0.64 | 0.00 | 68 | 1007.8 |
| 20260830122004 | 22 | 227 | 8.0 | 22.5 | 0.00 | 0.64 | 0.00 | 67 | 1007.8 |
| 20260830121004 | 22 | 226 | 6.4 | 19.3 | 0.00 | 0.64 | 0.00 | 67 | 1007.9 |
| 20260830120004 | 22 | 242 | 6.4 | 14.5 | 0.00 | 0.64 | 0.00 | 67 | 1008.0 |
| 20260830115004 | 22 | 220 | 8.0 | 20.9 | 0.00 | 0.64 | 0.00 | 68 | 1007.9 |
| 20260830114004 | 22 | 227 | 4.8 | 19.3 | 0.00 | 0.64 | 0.00 | 70 | 1008.0 |
| 20260830113003 | 22 | 214 | 8.0 | 17.7 | 0.00 | 0.64 | 0.00 | 71 | 1008.1 |
| 20260830112003 | 21 | 243 | 6.4 | 17.7 | 0.00 | 0.64 | 0.00 | 70 | 1008.2 |
| 20260830111003 | 21 | 237 | 6.4 | 20.9 | 0.00 | 0.64 | 0.00 | 72 | 1008.3 |
| 20260830110005 | 21 | 244 | 6.4 | 17.7 | 0.00 | 0.64 | 0.00 | 72 | 1008.5 |
| 20260830105003 | 21 | 248 | 6.4 | 19.3 | 0.00 | 0.66 | 0.00 | 72 | 1008.6 |
| 20260830104004 | 21 | 247 | 8.0 | 22.5 | 0.00 | 0.66 | 0.00 | 72 | 1008.6 |
| 20260830103003 | 21 | 249 | 4.8 | 19.3 | 0.00 | 0.66 | 0.00 | 73 | 1008.7 |
| 20260830102004 | 21 | 227 | 6.4 | 17.7 | 0.00 | 0.66 | 0.00 | 74 | 1008.7 |
| 20260830101003 | 20 | 261 | 8.0 | 19.3 | 0.00 | 0.66 | 0.00 | 75 | 1008.8 |
| 20260830100004 | 20 | 242 | 8.0 | 20.9 | 0.00 | 0.66 | 0.00 | 75 | 1009.0 |
| 20260830095004 | 21 | 245 | 6.4 | 16.1 | 0.00 | 0.69 | 0.00 | 76 | 1009.0 |
| 20260830094004 | 20 | 267 | 4.8 | 17.7 | 0.00 | 0.74 | 0.00 | 79 | 1009.0 |
| 20260830093005 | 20 | 260 | 3.2 | 12.9 | 0.00 | 0.74 | 0.00 | 79 | 1009.1 |
| 20260830092003 | 19 | 250 | 6.4 | 12.9 | 0.00 | 0.74 | 0.00 | 83 | 1009.2 |
| 20260830091003 | 18 | 261 | 4.8 | 14.5 | 0.00 | 0.74 | 0.00 | 86 | 1009.3 |
| 20260830085004 | 18 | 265 | 6.4 | 19.3 | 0.00 | 0.74 | 0.00 | 86 | 1009.4 |
| 20260830084004 | 18 | 250 | 1.6 | 11.3 | 0.00 | 0.74 | 0.00 | 87 | 1009.3 |
| 20260830083004 | 17 | 268 | 4.8 | 9.7 | 0.00 | 0.74 | 0.00 | 90 | 1009.3 |
| 20260830082004 | 17 | 261 | 6.4 | 17.7 | 0.00 | 0.74 | 0.00 | 89 | 1009.2 |
| 20260830081004 | 17 | 239 | 3.2 | 12.9 | 0.00 | 0.74 | 0.00 | 90 | 1009.1 |
| 20260830074003 | 16 | 281 | 3.2 | 14.5 | 0.00 | 0.76 | 0.00 | 93 | 1009.0 |
| 20260830073004 | 16 | 256 | 3.2 | 11.3 | 0.00 | 0.76 | 0.00 | 94 | 1008.9 |
| 20260830072004 | 16 | 258 | 4.8 | 14.5 | 0.00 | 0.76 | 0.00 | 95 | 1008.8 |
| 20260830070004 | 15 | 250 | 3.2 | 11.3 | 0.00 | 0.76 | 0.00 | 96 | 1008.5 |
| 20260830065003 | 15 | 239 | 3.2 | 11.3 | 0.00 | 0.76 | 0.00 | 96 | 1008.5 |
| 20260830063003 | 15 | 235 | 1.6 | 3.2 | 0.00 | 0.76 | 0.00 | 96 | 1008.3 |
| 20260830061004 | 15 | 233 | 0.0 | 8.0 | 0.00 | 0.76 | 0.00 | 96 | 1008.2 |
| 20260830060004 | 15 | 213 | 1.6 | 3.2 | 0.00 | 0.76 | 0.00 | 96 | 1008.1 |
| 20260830055004 | 14 | 272 | 1.6 | 6.4 | 0.00 | 0.76 | 0.00 | 96 | 1008.1 |
| 20260830054005 | 14 | 265 | 1.6 | 11.3 | 0.00 | 0.76 | 0.00 | 96 | 1008.0 |
| 20260830053004 | 14 | 255 | 1.6 | 9.7 | 0.00 | 0.76 | 0.00 | 95 | 1008.0 |
| 20260830052004 | 14 | 267 | 1.6 | 9.7 | 0.00 | 0.76 | 0.00 | 95 | 1007.9 |
| 20260830051004 | 14 | 267 | 3.2 | 6.4 | 0.00 | 0.76 | 0.00 | 95 | 1007.9 |
| 20260830050003 | 14 | 275 | 3.2 | 9.7 | 0.00 | 0.76 | 0.00 | 95 | 1007.8 |
| 20260830045003 | 15 | 265 | 4.8 | 14.5 | 0.00 | 0.76 | 0.00 | 95 | 1007.7 |
| 20260830043004 | 15 | 263 | 4.8 | 11.3 | 0.00 | 0.76 | 0.00 | 95 | 1007.6 |
| 20260830042004 | 15 | 260 | 3.2 | 17.7 | 0.00 | 0.76 | 0.00 | 94 | 1007.4 |
| 20260830041004 | 15 | 260 | 4.8 | 12.9 | 0.00 | 0.76 | 0.00 | 94 | 1007.3 |
| 20260830040004 | 15 | 278 | 4.8 | 12.9 | 0.00 | 0.76 | 0.00 | 94 | 1007.2 |
| 20260830035004 | 15 | 264 | 4.8 | 14.5 | 0.00 | 0.76 | 0.00 | 94 | 1007.2 |
| 20260830034003 | 15 | 267 | 3.2 | 14.5 | 0.00 | 0.76 | 0.00 | 93 | 1007.0 |
| 20260830033003 | 15 | 264 | 4.8 | 11.3 | 0.00 | 0.76 | 0.00 | 93 | 1006.9 |
| 20260830031004 | 15 | 251 | 3.2 | 12.9 | 0.00 | 0.76 | 0.00 | 92 | 1006.8 |
| 20260830025006 | 15 | 267 | 1.6 | 14.5 | 0.00 | 0.76 | 0.00 | 92 | 1006.6 |
| 20260830020004 | 16 | 270 | 3.2 | 12.9 | 0.00 | 0.76 | 0.00 | 91 | 1006.1 |
| 20260830015003 | 16 | 267 | 3.2 | 12.9 | 0.00 | 0.76 | 0.00 | 91 | 1006.0 |
| 20260830014003 | 16 | 260 | 3.2 | 16.1 | 0.00 | 0.76 | 0.00 | 91 | 1005.7 |